Aguilares, Texas
Current Conditions -  °F | °C
As of 9:55 AM on Saturday 25 Oct 2014 (Local Time) from KHBV Reporting Station
Clear Clear  
Wind Chill: 74°   Ceiling: Unl
Heat Index: 74°   Visibility: 10mi
Dew Point: 60°   Wind: 0mph
Humidity: 60%   Direction: NA
Pressure: 30.19"   Gusts: NA
Location:  27.4459°N, 99.0184°W
Report Text: KHBV 251455Z AUTO 00000KT 10SM CLR 23/15 A3019 RMK AO2 T02340153 PWINO
Loading
Personal Weather Stations






























Interactive Weather Map
Tropical Storm Tracking
New forecast layout! Learn more

10-Day Weather Forecast

Advertisements
Track Severe Weather on mobile